CheckWX is a tool to help pilots better visualize weather data.  It is not intended as a substitute for an official pre-flight weather briefing.

17:01:21 UTC

ZSSS METAR
Shanghai Hongqiao International Airport
Shanghai, China
Current

31 mins ago

ZSSS 231630Z 17004MPS CAVOK 24/14 Q1012 NOSIG
Observed
May-23 @ 16:30 UTC
Wind
  • 170° at 8 KTS
Visibility
10,000+ meters
Flight Rules
VFR
Cloud Levels
  • Clear skies
Temperature
24°C / 75°F
Dewpoint
14°C / 57°F
Humidity
54%
Altimeter
29.88" Hg
Pressure
1011.92 hPa
Previous

1 hour ago

ZSSS 231600Z 17003MPS 050V200 CAVOK 24/13 Q1012 NOSIG
Observed
May-23 @ 16:00 UTC
Wind
  • 170° at 6 KTS
Visibility
10,000+ meters
Flight Rules
VFR
Cloud Levels
  • Clear skies
Temperature
24°C / 75°F
Dewpoint
13°C / 55°F
Humidity
50%
Altimeter
29.88" Hg
Pressure
1011.92 hPa
Previous

2 hours ago

ZSSS 231530Z 16003MPS CAVOK 24/14 Q1012 NOSIG
Observed
May-23 @ 15:30 UTC
Wind
  • 160° at 6 KTS
Visibility
10,000+ meters
Flight Rules
VFR
Cloud Levels
  • Clear skies
Temperature
24°C / 75°F
Dewpoint
14°C / 57°F
Humidity
54%
Altimeter
29.88" Hg
Pressure
1011.92 hPa